Time;durP1;ratioP1;P1;durP2;ratioP2;P2;SDS_P1;SDS_P2;PMS_P1;PMS_P2;Temp;Humidity;BMP_temperature;BMP_pressure;BME280_temperature;BME280_humidity;BME280_pressure;Samples;Min_cycle;Max_cycle;Signal;HPM_P1;HPM_P2
2024/03/18 00:04:38;;;;;;;14.20;7.80;;;7.50;99.90;;;;;;12516162;28;20064;-82
2024/03/18 00:10:39;;;;;;;11.82;7.47;;;7.50;99.90;;;;;;12509384;28;20063;-81
2024/03/18 00:16:40;;;;;;;12.40;7.22;;;7.50;99.90;;;;;;12523142;28;20493;-82
2024/03/18 00:22:42;;;;;;;13.63;7.03;;;7.50;99.90;;;;;;12505297;28;20057;-81
2024/03/18 00:28:43;;;;;;;11.98;7.15;;;7.50;99.90;;;;;;12523739;28;20240;-82
2024/03/18 00:34:45;;;;;;;11.38;6.97;;;7.50;99.90;;;;;;12522039;28;20136;-82
2024/03/18 00:40:45;;;;;;;13.85;6.75;;;7.60;99.90;;;;;;12514688;28;20472;-82
2024/03/18 00:46:47;;;;;;;11.30;7.40;;;7.80;99.90;;;;;;12523712;28;20106;-79
2024/03/18 00:52:48;;;;;;;13.82;7.38;;;7.80;99.90;;;;;;12508680;28;20056;-79
2024/03/18 00:58:49;;;;;;;13.05;7.32;;;7.90;99.90;;;;;;12527577;28;20056;-80
2024/03/18 01:04:50;;;;;;;12.95;7.28;;;8.00;99.90;;;;;;12518815;28;20049;-81
2024/03/18 01:10:51;;;;;;;10.75;7.32;;;8.10;99.90;;;;;;12516048;28;20089;-80
2024/03/18 01:16:52;;;;;;;12.20;7.50;;;8.20;99.90;;;;;;12512371;28;20401;-79
2024/03/18 01:22:53;;;;;;;12.68;7.70;;;8.30;99.90;;;;;;12517161;28;20459;-80
2024/03/18 01:28:53;;;;;;;11.75;7.25;;;8.30;99.90;;;;;;12515598;28;20049;-80
2024/03/18 01:34:54;;;;;;;13.00;7.20;;;8.30;99.90;;;;;;12523499;28;20052;-79
2024/03/18 01:40:57;;;;;;;12.70;7.38;;;8.30;99.90;;;;;;12517537;28;20044;-80
2024/03/18 01:46:58;;;;;;;10.93;7.55;;;8.30;99.90;;;;;;12502901;28;20106;-80
2024/03/18 01:52:59;;;;;;;11.45;7.60;;;8.40;99.90;;;;;;12494386;28;20106;-80
2024/03/18 01:59:06;;;;;;;14.77;8.13;;;8.50;99.90;;;;;;12517505;28;20489;-84
2024/03/18 02:05:07;;;;;;;12.63;8.10;;;8.40;99.90;;;;;;12501466;28;20060;-83
2024/03/18 02:11:08;;;;;;;11.95;7.65;;;8.30;99.90;;;;;;12494880;28;20056;-83
2024/03/18 02:17:08;;;;;;;13.23;8.20;;;8.20;99.90;;;;;;12519820;28;20045;-82
2024/03/18 02:23:11;;;;;;;12.35;7.50;;;8.10;99.90;;;;;;12496473;28;20045;-83
2024/03/18 02:29:12;;;;;;;14.23;8.23;;;8.10;99.90;;;;;;12503432;28;20060;-80
2024/03/18 02:35:17;;;;;;;11.48;7.55;;;8.10;99.90;;;;;;12527020;28;20068;-80
2024/03/18 02:41:18;;;;;;;14.10;8.25;;;8.00;99.90;;;;;;12509050;28;20056;-79
2024/03/18 02:47:19;;;;;;;14.27;7.75;;;7.90;99.90;;;;;;12509434;28;20138;-80
2024/03/18 02:53:20;;;;;;;11.75;7.15;;;7.80;99.90;;;;;;12508513;28;20049;-79
2024/03/18 02:59:21;;;;;;;12.98;7.65;;;7.90;99.90;;;;;;12506033;28;20079;-79
2024/03/18 03:05:22;;;;;;;11.77;8.05;;;7.80;99.90;;;;;;12492125;28;20055;-80
2024/03/18 03:11:23;;;;;;;14.40;7.78;;;7.80;99.90;;;;;;12522220;28;20138;-84
2024/03/18 03:17:23;;;;;;;12.43;7.40;;;7.70;99.90;;;;;;12521415;28;20049;-84
2024/03/18 03:23:24;;;;;;;16.02;8.60;;;7.80;99.90;;;;;;12524905;28;20083;-84
2024/03/18 03:29:25;;;;;;;15.43;7.93;;;7.80;99.90;;;;;;12503864;28;20088;-84
2024/03/18 03:35:26;;;;;;;12.43;7.70;;;7.70;99.90;;;;;;12531702;28;20053;-84
2024/03/18 03:41:27;;;;;;;13.85;7.68;;;7.40;99.90;;;;;;12507124;28;20060;-82
2024/03/18 03:47:28;;;;;;;11.25;7.55;;;7.20;99.90;;;;;;12519771;28;20053;-82
2024/03/18 03:53:29;;;;;;;14.20;7.63;;;7.30;99.90;;;;;;12526461;28;20554;-84
2024/03/18 03:59:29;;;;;;;13.93;7.03;;;7.30;99.90;;;;;;12534683;28;20053;-82
2024/03/18 04:05:30;;;;;;;17.10;7.57;;;7.40;99.90;;;;;;12526131;28;20112;-82
2024/03/18 04:11:31;;;;;;;12.52;7.25;;;7.50;99.90;;;;;;12530121;28;20102;-82
2024/03/18 04:17:32;;;;;;;12.65;6.97;;;7.40;99.90;;;;;;12503568;28;20041;-83
2024/03/18 04:23:35;;;;;;;15.27;7.22;;;7.50;99.90;;;;;;12517943;28;20059;-83
2024/03/18 04:29:36;;;;;;;11.45;6.85;;;7.50;99.90;;;;;;12513898;28;20076;-79
2024/03/18 04:35:37;;;;;;;12.30;6.95;;;7.50;99.90;;;;;;12529529;28;20156;-79
2024/03/18 04:41:38;;;;;;;11.38;6.82;;;7.50;99.90;;;;;;12524941;28;20042;-80
2024/03/18 04:47:42;;;;;;;12.00;6.53;;;7.50;99.90;;;;;;12513901;28;20049;-80
2024/03/18 04:53:43;;;;;;;12.50;7.20;;;7.40;99.90;;;;;;12526785;28;20052;-79
2024/03/18 04:59:44;;;;;;;12.25;6.97;;;7.40;99.90;;;;;;12509389;28;20067;-79
2024/03/18 05:05:44;;;;;;;11.50;7.00;;;7.40;99.90;;;;;;12505861;28;20075;-79
2024/03/18 05:11:45;;;;;;;10.93;6.07;;;7.40;99.90;;;;;;12519844;28;20075;-79
2024/03/18 05:17:46;;;;;;;13.48;6.55;;;7.40;99.90;;;;;;12524962;28;20053;-79
2024/03/18 05:23:48;;;;;;;11.10;6.90;;;7.40;99.90;;;;;;12499926;28;20172;-79
2024/03/18 05:29:49;;;;;;;11.88;6.85;;;7.40;99.90;;;;;;12525188;28;20044;-80
2024/03/18 05:35:50;;;;;;;13.18;6.45;;;7.50;99.90;;;;;;12524746;28;20485;-80
2024/03/18 05:41:51;;;;;;;8.98;6.10;;;7.50;99.90;;;;;;12515346;28;20049;-80
2024/03/18 05:47:52;;;;;;;9.43;6.30;;;7.40;99.90;;;;;;12482080;28;20061;-80
2024/03/18 05:53:53;;;;;;;10.32;6.32;;;7.40;99.90;;;;;;12512387;28;20057;-80
2024/03/18 05:59:54;;;;;;;9.18;5.85;;;7.40;99.90;;;;;;12493073;28;20095;-85
2024/03/18 06:05:55;;;;;;;11.13;6.32;;;7.40;99.90;;;;;;12502032;28;20056;-85
2024/03/18 06:11:56;;;;;;;8.75;5.63;;;7.50;99.90;;;;;;12500833;28;20524;-85
2024/03/18 06:17:57;;;;;;;11.40;6.40;;;7.50;99.90;;;;;;12483582;28;20104;-85
2024/03/18 06:24:05;;;;;;;11.88;6.40;;;7.50;99.90;;;;;;12488176;28;20575;-84
2024/03/18 06:30:06;;;;;;;10.35;5.80;;;7.60;99.90;;;;;;12508976;28;20049;-85
2024/03/18 06:36:11;;;;;;;9.60;5.55;;;7.70;99.90;;;;;;12506914;28;20049;-85
2024/03/18 06:42:12;;;;;;;12.48;6.97;;;7.80;99.90;;;;;;12513644;28;20452;-84
2024/03/18 06:48:13;;;;;;;13.20;5.63;;;7.70;99.90;;;;;;12498918;28;20049;-80
2024/03/18 06:54:14;;;;;;;10.93;5.45;;;7.90;99.90;;;;;;12509727;28;20041;-85
2024/03/18 07:00:19;;;;;;;10.18;5.88;;;8.10;99.90;;;;;;12524649;28;20496;-82
2024/03/18 07:06:20;;;;;;;9.55;6.18;;;8.10;99.90;;;;;;12513090;28;20045;-85
2024/03/18 07:12:21;;;;;;;8.23;5.45;;;8.30;99.90;;;;;;12505516;28;20061;-82
2024/03/18 07:18:22;;;;;;;10.15;5.35;;;8.40;99.90;;;;;;12521808;28;20060;-82
2024/03/18 07:24:23;;;;;;;11.25;5.82;;;8.40;99.90;;;;;;12503905;28;20060;-82
2024/03/18 07:30:23;;;;;;;9.88;5.82;;;8.50;99.90;;;;;;12504876;28;20068;-82
2024/03/18 07:36:24;;;;;;;8.93;5.32;;;8.60;99.90;;;;;;12527006;28;20131;-81
2024/03/18 07:42:26;;;;;;;9.35;6.05;;;8.50;99.90;;;;;;12523417;28;20111;-82
2024/03/18 07:48:27;;;;;;;9.63;5.97;;;8.60;99.90;;;;;;12522502;28;20540;-80
2024/03/18 07:54:31;;;;;;;11.55;6.50;;;8.50;99.90;;;;;;12502745;28;20064;-81
2024/03/18 08:00:33;;;;;;;;;;;8.40;99.90;;;;;;12503023;28;20056;-81
2024/03/18 08:06:33;;;;;;;11.60;5.68;;;8.40;99.90;;;;;;12528771;28;20392;-81
2024/03/18 08:12:34;;;;;;;10.95;6.38;;;8.40;99.90;;;;;;12529314;28;20060;-81
2024/03/18 08:18:35;;;;;;;10.25;6.40;;;8.30;99.90;;;;;;12517748;28;20110;-82
2024/03/18 08:24:36;;;;;;;10.13;6.07;;;8.20;99.90;;;;;;12505427;28;20490;-84
2024/03/18 08:30:37;;;;;;;10.90;6.47;;;7.90;99.90;;;;;;12507291;28;20056;-85
2024/03/18 08:36:38;;;;;;;12.68;6.40;;;7.60;99.90;;;;;;12509220;28;20155;-83
2024/03/18 08:42:40;;;;;;;11.52;6.72;;;7.30;99.90;;;;;;12526127;28;20179;-82
2024/03/18 08:48:41;;;;;;;14.38;6.75;;;7.00;99.90;;;;;;12526641;28;20069;-83
2024/03/18 08:54:42;;;;;;;12.50;7.18;;;6.80;99.90;;;;;;12516722;28;20064;-83
2024/03/18 09:00:45;;;;;;;14.07;7.63;;;6.80;99.90;;;;;;12517725;28;20055;-82
2024/03/18 09:06:46;;;;;;;10.88;6.43;;;6.80;99.90;;;;;;12501918;28;20057;-84
2024/03/18 09:12:48;;;;;;;13.32;6.93;;;6.90;99.90;;;;;;12499065;28;20075;-81
2024/03/18 09:18:48;;;;;;;15.75;7.10;;;7.00;99.90;;;;;;12507227;28;20053;-81
2024/03/18 09:24:50;;;;;;;14.93;8.07;;;7.10;99.90;;;;;;12522898;28;20830;-79
2024/03/18 09:31:01;;;;;;;13.57;7.13;;;7.30;99.90;;;;;;12505875;28;20045;-83
2024/03/18 09:37:03;;;;;;;10.52;6.82;;;7.60;99.90;;;;;;12494065;28;20079;-83
2024/03/18 09:43:04;;;;;;;13.68;6.72;;;7.80;99.90;;;;;;12507246;28;20049;-83
2024/03/18 09:49:16;;;;;;;12.40;7.07;;;8.10;99.90;;;;;;12513876;28;20056;-82
2024/03/18 09:55:20;;;;;;;10.23;6.55;;;8.30;99.90;;;;;;12501554;28;20052;-83
2024/03/18 10:01:21;;;;;;;14.05;6.57;;;8.40;99.90;;;;;;12473986;28;20391;-84
2024/03/18 10:07:22;;;;;;;13.00;7.22;;;8.60;99.90;;;;;;12464292;28;20060;-83
2024/03/18 10:13:24;;;;;;;10.35;6.55;;;8.50;99.90;;;;;;12467860;28;20518;-85
2024/03/18 10:19:25;;;;;;;12.23;6.80;;;8.30;99.90;;;;;;12460134;28;20067;-83
2024/03/18 10:25:26;;;;;;;10.00;6.97;;;8.40;99.90;;;;;;12496903;28;20097;-81
2024/03/18 10:31:29;;;;;;;13.95;6.85;;;8.40;99.90;;;;;;12480103;28;20425;-84
2024/03/18 10:37:32;;;;;;;11.43;6.85;;;8.50;99.90;;;;;;12465717;28;20054;-84
2024/03/18 10:43:35;;;;;;;11.85;6.78;;;8.60;99.90;;;;;;12475057;28;20072;-84
2024/03/18 10:49:38;;;;;;;11.65;6.30;;;8.40;99.90;;;;;;12485055;28;20045;-83
2024/03/18 10:55:40;;;;;;;11.70;6.57;;;8.30;99.90;;;;;;12479348;28;20056;-84
2024/03/18 11:01:41;;;;;;;15.45;7.43;;;8.40;99.90;;;;;;12489349;28;20072;-85
2024/03/18 11:07:43;;;;;;;13.05;6.57;;;8.10;99.90;;;;;;12524112;28;20049;-83
2024/03/18 11:13:44;;;;;;;14.10;7.82;;;7.90;99.90;;;;;;12512178;28;20045;-84
2024/03/18 11:19:45;;;;;;;12.50;7.03;;;7.80;99.90;;;;;;12530930;28;20040;-84
2024/03/18 11:26:11;;;;;;;15.80;8.23;;;7.80;99.90;;;;;;12511559;28;20065;-85
2024/03/18 11:32:14;;;;;;;14.38;7.70;;;7.80;99.90;;;;;;12495381;28;20072;-85
2024/03/18 11:38:16;;;;;;;14.73;8.30;;;7.90;99.90;;;;;;12509017;28;20045;-85
2024/03/18 11:44:17;;;;;;;15.95;9.02;;;8.00;99.90;;;;;;12515185;28;20300;-85
2024/03/18 11:50:18;;;;;;;15.43;8.45;;;8.20;99.90;;;;;;12531732;28;20144;-86
2024/03/18 11:56:19;;;;;;;16.10;9.07;;;8.20;99.90;;;;;;12521107;28;20053;-85
2024/03/18 12:02:20;;;;;;;18.75;9.20;;;8.10;99.90;;;;;;12478493;28;20053;-79
2024/03/18 12:08:24;;;;;;;15.95;8.70;;;8.20;99.90;;;;;;12497648;28;20049;-80
2024/03/18 12:14:25;;;;;;;13.48;9.40;;;8.20;99.90;;;;;;12473237;28;20433;-80
2024/03/18 12:20:30;;;;;;;16.13;9.52;;;8.30;99.90;;;;;;12482522;28;20092;-80
2024/03/18 12:32:50;;;;;;;16.27;9.73;;;8.40;99.90;;;;;;12467872;28;20053;-79
2024/03/18 12:38:51;;;;;;;17.23;9.75;;;8.60;99.90;;;;;;12474864;28;20045;-80
2024/03/18 12:44:52;;;;;;;17.17;9.98;;;8.70;99.90;;;;;;12463180;28;20049;-80
2024/03/18 12:50:55;;;;;;;13.70;8.93;;;8.70;99.90;;;;;;12465613;28;20080;-80
2024/03/18 12:56:56;;;;;;;14.13;10.00;;;8.90;99.90;;;;;;12482678;28;20052;-80
2024/03/18 13:02:58;;;;;;;15.05;9.15;;;9.00;99.90;;;;;;12464654;28;20057;-85
2024/03/18 13:08:59;;;;;;;13.55;9.38;;;9.30;99.90;;;;;;12471426;28;20041;-86
2024/03/18 13:15:07;;;;;;;14.40;9.32;;;9.40;99.90;;;;;;12459392;28;20105;-82
2024/03/18 13:21:12;;;;;;;12.50;8.18;;;9.60;99.90;;;;;;12478634;28;20452;-82
2024/03/18 13:27:14;;;;;;;17.20;9.85;;;9.70;99.90;;;;;;12487397;28;20060;-82
2024/03/18 13:33:17;;;;;;;14.93;9.93;;;9.80;99.90;;;;;;12468240;28;20060;-82
2024/03/18 13:39:18;;;;;;;18.05;9.30;;;9.80;99.90;;;;;;12480628;28;20107;-82
2024/03/18 13:45:20;;;;;;;15.70;9.70;;;10.00;99.90;;;;;;12465110;28;20108;-83
2024/03/18 13:51:21;;;;;;;14.18;9.32;;;9.80;99.90;;;;;;12446272;28;20064;-83
2024/03/18 13:57:22;;;;;;;15.65;8.90;;;9.90;99.90;;;;;;12468523;28;20068;-82
2024/03/18 14:03:23;;;;;;;14.25;8.95;;;10.10;99.90;;;;;;12459536;28;20133;-82
2024/03/18 14:09:24;;;;;;;14.43;9.68;;;10.30;99.90;;;;;;12474186;28;20430;-85
2024/03/18 14:15:25;;;;;;;14.50;9.52;;;10.80;99.90;;;;;;12478228;28;20045;-86
2024/03/18 14:21:26;;;;;;;12.80;9.70;;;10.90;99.90;;;;;;12446587;28;20053;-86
2024/03/18 14:27:27;;;;;;;11.23;9.40;;;10.80;99.90;;;;;;12456485;28;20069;-85
2024/03/18 14:33:28;;;;;;;14.43;9.35;;;10.80;99.90;;;;;;12476993;28;20057;-83
2024/03/18 14:39:29;;;;;;;13.90;9.48;;;10.80;99.90;;;;;;12477142;28;20116;-83
2024/03/18 14:45:31;;;;;;;11.18;8.70;;;11.10;99.90;;;;;;12474779;28;20109;-83
2024/03/18 14:51:32;;;;;;;9.52;7.60;;;11.10;99.90;;;;;;12468934;28;20054;-82
2024/03/18 14:57:33;;;;;;;10.88;8.68;;;11.20;99.90;;;;;;12456791;28;20412;-83
2024/03/18 15:03:34;;;;;;;12.38;8.23;;;11.00;99.90;;;;;;12473159;28;20053;-84
2024/03/18 15:09:35;;;;;;;10.98;8.77;;;11.00;99.90;;;;;;12483216;28;20065;-82
2024/03/18 15:15:37;;;;;;;10.90;8.55;;;11.00;99.90;;;;;;12480914;28;20045;-82
2024/03/18 15:21:38;;;;;;;10.80;8.00;;;10.80;99.90;;;;;;12473975;28;20048;-85
2024/03/18 15:27:44;;;;;;;10.73;7.55;;;10.80;99.90;;;;;;12459950;28;20057;-84
2024/03/18 15:33:46;;;;;;;11.52;7.80;;;10.80;99.90;;;;;;12461812;28;20050;-85
2024/03/18 15:39:46;;;;;;;10.65;7.55;;;10.80;99.90;;;;;;12459706;28;20497;-82
2024/03/18 15:45:48;;;;;;;12.13;7.60;;;10.90;99.90;;;;;;12487791;28;20898;-82
2024/03/18 15:51:49;;;;;;;8.30;7.10;;;10.80;99.90;;;;;;12471447;28;20062;-82
2024/03/18 15:57:50;;;;;;;7.95;6.35;;;10.80;99.90;;;;;;12494255;28;20053;-82
2024/03/18 16:03:51;;;;;;;11.82;7.47;;;10.70;99.90;;;;;;12499491;28;20489;-84
2024/03/18 16:09:52;;;;;;;9.70;7.38;;;10.50;99.90;;;;;;12507069;28;20044;-82
2024/03/18 16:15:54;;;;;;;11.88;8.13;;;10.50;99.90;;;;;;12503248;28;20084;-85
2024/03/18 16:21:55;;;;;;;14.15;8.35;;;10.40;99.90;;;;;;12503426;28;20041;-85
2024/03/18 16:27:56;;;;;;;11.85;8.20;;;10.30;99.90;;;;;;12499484;28;20053;-84
2024/03/18 16:33:57;;;;;;;13.32;8.20;;;10.20;99.90;;;;;;12511209;28;20049;-80
2024/03/18 16:39:58;;;;;;;11.85;7.78;;;10.10;99.90;;;;;;12535704;28;20053;-80
2024/03/18 16:45:59;;;;;;;12.18;8.82;;;10.00;99.90;;;;;;12514092;28;20078;-80
2024/03/18 16:52:00;;;;;;;13.70;8.45;;;10.00;99.90;;;;;;12514202;28;20057;-80
2024/03/18 16:58:01;;;;;;;16.95;11.68;;;9.90;99.90;;;;;;12502784;28;20053;-84
2024/03/18 17:04:02;;;;;;;26.20;15.45;;;9.90;99.90;;;;;;12521770;28;20049;-79
2024/03/18 17:10:04;;;;;;;13.05;8.95;;;9.90;99.90;;;;;;12516499;28;20049;-83
2024/03/18 17:16:09;;;;;;;13.25;8.73;;;9.70;99.90;;;;;;12500957;28;20481;-82
2024/03/18 17:22:09;;;;;;;16.33;9.38;;;9.60;99.90;;;;;;12501502;28;20497;-83
2024/03/18 17:28:10;;;;;;;12.52;8.55;;;9.50;99.90;;;;;;12513984;28;20088;-83
2024/03/18 17:34:11;;;;;;;14.35;8.68;;;9.50;99.90;;;;;;12521377;28;20052;-83
2024/03/18 17:40:13;;;;;;;11.25;8.65;;;9.40;99.90;;;;;;12536495;28;20120;-80
2024/03/18 17:46:14;;;;;;;13.95;8.88;;;9.40;99.90;;;;;;12524690;28;20053;-80
2024/03/18 17:52:15;;;;;;;11.95;8.45;;;9.30;99.90;;;;;;12527968;28;20501;-80
2024/03/18 17:58:16;;;;;;;13.80;8.75;;;9.30;99.90;;;;;;12542255;28;20075;-79
2024/03/18 18:04:17;;;;;;;15.18;8.77;;;9.20;99.90;;;;;;12510618;28;20068;-79
2024/03/18 18:10:17;;;;;;;14.68;9.32;;;9.10;99.90;;;;;;12518236;28;20519;-79
2024/03/18 18:16:19;;;;;;;13.60;9.57;;;9.00;99.90;;;;;;12512023;28;20583;-80
2024/03/18 18:22:22;;;;;;;14.38;9.60;;;8.90;99.90;;;;;;12523203;28;20053;-79
2024/03/18 18:28:23;;;;;;;20.23;11.48;;;8.90;99.90;;;;;;12520461;28;20115;-79
2024/03/18 18:34:25;;;;;;;34.58;22.73;;;8.80;99.90;;;;;;12486569;28;20547;-82
2024/03/18 18:40:26;;;;;;;15.43;11.50;;;8.80;99.90;;;;;;12515447;28;20049;-84
2024/03/18 18:46:30;;;;;;;15.20;10.88;;;8.80;99.90;;;;;;12505296;28;20513;-84
2024/03/18 18:52:32;;;;;;;15.75;11.07;;;8.80;99.90;;;;;;12508704;28;20067;-82
2024/03/18 18:58:33;;;;;;;16.20;11.23;;;8.70;99.90;;;;;;12520392;28;20053;-82
2024/03/18 19:04:35;;;;;;;21.50;12.43;;;8.80;99.90;;;;;;12524077;28;20057;-82
2024/03/18 19:10:36;;;;;;;18.30;12.48;;;8.80;99.90;;;;;;12521058;28;20464;-82
2024/03/18 19:16:36;;;;;;;19.58;12.40;;;8.80;99.90;;;;;;12509068;28;20080;-81
2024/03/18 19:22:39;;;;;;;26.58;16.27;;;8.80;99.90;;;;;;12521868;28;20045;-82
2024/03/18 19:28:39;;;;;;;18.30;11.75;;;8.80;99.90;;;;;;12525348;28;20615;-82
2024/03/18 19:34:40;;;;;;;16.90;11.68;;;8.80;99.90;;;;;;12524768;28;20074;-82
2024/03/18 19:40:43;;;;;;;16.35;11.75;;;8.90;99.90;;;;;;12518139;28;20520;-82
2024/03/18 19:46:44;;;;;;;17.98;11.38;;;8.90;99.90;;;;;;12510035;28;20057;-82
2024/03/18 19:52:45;;;;;;;15.80;11.00;;;8.90;99.90;;;;;;12521058;28;20515;-82
2024/03/18 19:58:46;;;;;;;18.95;11.50;;;8.80;99.90;;;;;;12539807;28;20048;-81
2024/03/18 20:04:48;;;;;;;14.80;10.23;;;8.90;99.90;;;;;;12519349;28;20053;-80
2024/03/18 20:10:49;;;;;;;17.20;10.73;;;8.80;99.90;;;;;;12513858;28;20057;-79
2024/03/18 20:16:56;;;;;;;20.35;11.93;;;8.70;99.90;;;;;;12507717;28;20479;-79
2024/03/18 20:22:57;;;;;;;15.20;10.95;;;8.80;99.90;;;;;;12525204;28;20052;-80
2024/03/18 20:28:57;;;;;;;19.85;12.25;;;8.80;99.90;;;;;;12531281;28;20056;-79
2024/03/18 20:34:58;;;;;;;16.23;10.73;;;8.80;99.90;;;;;;12513710;28;20091;-79
2024/03/18 20:41:06;;;;;;;18.65;12.07;;;8.70;99.90;;;;;;12535933;28;20049;-79
2024/03/18 20:47:11;;;;;;;21.00;13.13;;;8.60;99.90;;;;;;12513121;28;20052;-79
2024/03/18 20:53:12;;;;;;;20.05;12.43;;;8.60;99.90;;;;;;12547056;28;20464;-85
2024/03/18 20:59:13;;;;;;;24.63;14.23;;;8.70;99.90;;;;;;12498200;28;20052;-85
2024/03/18 21:05:14;;;;;;;20.70;13.25;;;8.70;99.90;;;;;;12511686;28;20111;-85
2024/03/18 21:11:15;;;;;;;22.98;13.68;;;8.80;99.90;;;;;;12519912;28;20570;-84
2024/03/18 21:17:16;;;;;;;18.92;13.07;;;8.80;99.90;;;;;;12520442;28;20103;-83
2024/03/18 21:23:17;;;;;;;21.05;13.80;;;8.90;99.90;;;;;;12519767;28;20056;-83
2024/03/18 21:29:18;;;;;;;21.73;15.13;;;8.80;99.90;;;;;;12513693;28;20061;-82
2024/03/18 21:35:19;;;;;;;22.02;15.80;;;8.70;99.90;;;;;;12519144;28;20052;-83
2024/03/18 21:41:20;;;;;;;20.00;15.80;;;8.70;99.90;;;;;;12513693;28;20668;-82
2024/03/18 21:47:21;;;;;;;19.90;15.00;;;8.60;99.90;;;;;;12519210;28;20068;-82
2024/03/18 21:53:24;;;;;;;20.17;15.00;;;8.50;99.90;;;;;;12494696;28;20060;-83
2024/03/18 21:59:24;;;;;;;21.88;16.70;;;8.50;99.90;;;;;;12501011;28;20060;-81
2024/03/18 22:05:25;;;;;;;21.25;17.33;;;8.40;99.90;;;;;;12516840;28;20053;-79
2024/03/18 22:11:26;;;;;;;23.80;19.20;;;8.40;99.90;;;;;;12508048;28;20052;-78
2024/03/18 22:17:28;;;;;;;23.63;17.98;;;8.30;99.90;;;;;;12509253;28;20049;-79
2024/03/18 22:23:28;;;;;;;23.52;18.20;;;8.30;99.90;;;;;;12504685;28;20051;-78
2024/03/18 22:29:29;;;;;;;30.80;20.20;;;8.30;99.90;;;;;;12523846;28;20049;-79
2024/03/18 22:35:31;;;;;;;29.88;20.27;;;8.30;99.90;;;;;;12516361;28;20045;-79
2024/03/18 22:41:32;;;;;;;26.05;18.40;;;8.30;99.90;;;;;;12519730;28;20069;-79
2024/03/18 22:47:33;;;;;;;26.65;18.63;;;8.20;99.90;;;;;;12503360;28;20057;-79
2024/03/18 22:53:33;;;;;;;27.27;20.35;;;8.30;99.90;;;;;;12501165;28;20061;-79
2024/03/18 22:59:34;;;;;;;29.13;18.85;;;8.20;99.90;;;;;;12487048;28;20053;-79
2024/03/18 23:05:35;;;;;;;25.88;17.85;;;8.20;99.90;;;;;;12510397;28;20175;-79
2024/03/18 23:11:36;;;;;;;27.75;19.98;;;8.10;99.90;;;;;;12514219;28;20053;-80
2024/03/18 23:17:40;;;;;;;30.40;20.17;;;8.10;99.90;;;;;;12514326;28;20071;-84
2024/03/18 23:23:41;;;;;;;33.60;21.53;;;8.20;99.90;;;;;;12497029;28;20421;-84
2024/03/18 23:29:42;;;;;;;31.80;22.45;;;8.20;99.90;;;;;;12519279;28;20127;-83
2024/03/18 23:35:43;;;;;;;27.05;20.80;;;8.10;99.90;;;;;;12531568;28;20100;-81
2024/03/18 23:41:44;;;;;;;26.02;20.27;;;8.00;99.90;;;;;;12505725;28;20053;-81
2024/03/18 23:47:45;;;;;;;30.25;22.10;;;7.90;99.90;;;;;;12517707;28;20100;-81
2024/03/18 23:53:46;;;;;;;29.30;21.00;;;7.80;99.90;;;;;;12524173;28;20057;-81
2024/03/18 23:59:48;;;;;;;27.70;20.20;;;7.70;99.90;;;;;;12497435;28;20452;-81
